Time;durP1;ratioP1;P1;durP2;ratioP2;P2;SDS_P1;SDS_P2;PMS_P1;PMS_P2;Temp;Humidity;BMP_temperature;BMP_pressure;BME280_temperature;BME280_humidity;BME280_pressure;Samples;Min_cycle;Max_cycle;Signal;HPM_P1;HPM_P2
2022/12/09 00:01:04;;;;;;;43.40;29.50;;;;;;;-1.67;100.00;96089.69;5027036;28;20560;-70
2022/12/09 00:03:32;;;;;;;45.93;31.13;;;;;;;-1.61;100.00;96089.94;5021317;28;20234;-70
2022/12/09 00:06:00;;;;;;;44.23;28.47;;;;;;;-1.63;100.00;96091.06;4996439;28;20472;-72
2022/12/09 00:08:28;;;;;;;37.37;27.87;;;;;;;-1.59;100.00;96087.22;5023203;28;20203;-72
2022/12/09 00:10:55;;;;;;;44.13;30.97;;;;;;;-1.60;100.00;96091.59;4961487;28;22009;-71
2022/12/09 00:13:23;;;;;;;42.10;28.97;;;;;;;-1.54;100.00;96092.84;5026491;28;20227;-72
2022/12/09 00:15:51;;;;;;;42.77;29.30;;;;;;;-1.54;100.00;96084.22;5015241;28;20310;-72
2022/12/09 00:18:20;;;;;;;44.37;29.07;;;;;;;-1.63;100.00;96088.47;5024309;28;20227;-72
2022/12/09 00:20:47;;;;;;;41.17;30.47;;;;;;;-1.64;100.00;96092.81;4994874;28;20239;-69
2022/12/09 00:23:15;;;;;;;35.87;26.20;;;;;;;-1.66;100.00;96084.34;5021092;28;20644;-70
2022/12/09 00:25:43;;;;;;;43.43;27.77;;;;;;;-1.69;100.00;96086.41;5022924;28;20398;-70
2022/12/09 00:28:11;;;;;;;40.70;27.67;;;;;;;-1.69;100.00;96083.81;4960909;28;20230;-70
2022/12/09 00:30:38;;;;;;;38.17;26.53;;;;;;;-1.63;100.00;96078.06;5018180;28;20541;-69
2022/12/09 00:33:06;;;;;;;38.13;27.20;;;;;;;-1.66;100.00;96080.94;5028051;28;20438;-70
2022/12/09 00:35:35;;;;;;;39.23;27.27;;;;;;;-1.62;100.00;96080.50;4993179;28;20740;-69
2022/12/09 00:38:03;;;;;;;35.20;26.30;;;;;;;-1.60;100.00;96077.78;5021295;28;20540;-70
2022/12/09 00:40:31;;;;;;;41.60;28.07;;;;;;;-1.53;100.00;96076.28;5024741;28;20630;-69
2022/12/09 00:42:58;;;;;;;38.97;28.03;;;;;;;-1.56;100.00;96079.16;4974689;28;21793;-72
2022/12/09 00:45:26;;;;;;;37.40;26.10;;;;;;;-1.61;100.00;96078.75;5024739;28;20610;-72
2022/12/09 00:47:54;;;;;;;39.63;26.53;;;;;;;-1.60;100.00;96070.81;5021000;28;20584;-72
2022/12/09 00:50:21;;;;;;;44.67;29.13;;;;;;;-1.54;100.00;96068.63;5024560;28;20204;-69
2022/12/09 00:52:50;;;;;;;39.33;26.33;;;;;;;-1.50;100.00;96062.22;4995647;28;20362;-72
2022/12/09 00:55:18;;;;;;;43.70;27.63;;;;;;;-1.57;100.00;96068.91;5027280;28;20319;-71
2022/12/09 00:57:46;;;;;;;37.97;26.43;;;;;;;-1.53;100.00;96065.06;4992747;28;20223;-72
2022/12/09 01:00:14;;;;;;;38.63;26.57;;;;;;;-1.55;100.00;96064.38;5024120;28;20291;-70
2022/12/09 01:02:42;;;;;;;34.77;24.93;;;;;;;-1.60;100.00;96070.81;5023647;28;20212;-71
2022/12/09 01:05:10;;;;;;;32.33;23.50;;;;;;;-1.61;100.00;96074.38;5027030;28;20819;-71
2022/12/09 01:07:38;;;;;;;34.00;24.60;;;;;;;-1.57;100.00;96072.31;4991400;28;20319;-71
2022/12/09 01:10:08;;;;;;;31.90;23.10;;;;;;;-1.63;100.00;96075.47;5027296;28;20587;-72
2022/12/09 01:12:37;;;;;;;29.67;22.17;;;;;;;-1.64;100.00;96076.44;5022730;28;20986;-70
2022/12/09 01:15:07;;;;;;;27.87;21.90;;;;;;;-1.66;100.00;96075.75;4973129;28;20829;-71
2022/12/09 01:17:36;;;;;;;30.60;23.67;;;;;;;-1.56;100.00;96079.16;5028421;28;20895;-68
2022/12/09 01:20:05;;;;;;;32.40;22.33;;;;;;;-1.53;100.00;96076.28;5025958;28;20231;-70
2022/12/09 01:22:34;;;;;;;32.53;23.13;;;;;;;-1.46;100.00;96077.38;4994612;28;20221;-70
2022/12/09 01:25:01;;;;;;;28.03;21.37;;;;;;;-1.51;100.00;96073.56;5025468;28;20418;-71
2022/12/09 01:27:31;;;;;;;32.73;23.17;;;;;;;-1.47;100.00;96075.75;5024100;28;20595;-72
2022/12/09 01:29:59;;;;;;;29.90;22.10;;;;;;;-1.62;100.00;96072.72;4965933;28;20665;-73
2022/12/09 01:32:27;;;;;;;28.33;20.93;;;;;;;-1.65;100.00;96072.19;5028801;28;20512;-71
2022/12/09 01:34:54;;;;;;;25.90;20.20;;;;;;;-1.62;100.00;96071.91;4969125;28;20223;-71
2022/12/09 01:37:22;;;;;;;28.87;21.90;;;;;;;-1.63;100.00;96057.28;5021185;28;20547;-70
2022/12/09 01:39:50;;;;;;;29.63;22.83;;;;;;;-1.75;100.00;96054.00;5015873;28;20605;-72
2022/12/09 01:42:19;;;;;;;30.50;22.83;;;;;;;-1.81;100.00;96049.34;5029699;28;20602;-71
2022/12/09 01:45:29;;;;;;;26.80;21.63;;;;;;;-1.89;100.00;96047.41;4997369;28;20832;-72
2022/12/09 01:48:01;;;;;;;29.00;20.13;;;;;;;-1.96;100.00;96044.50;5013540;28;21623;-71
2022/12/09 01:50:29;;;;;;;27.87;21.33;;;;;;;-2.06;100.00;96041.09;4968431;28;20578;-72
2022/12/09 01:52:57;;;;;;;33.27;22.77;;;;;;;-2.11;100.00;96033.69;5026313;28;20223;-72
2022/12/09 01:55:25;;;;;;;32.67;22.53;;;;;;;-2.08;100.00;96036.03;5021147;28;20234;-71
2022/12/09 01:57:53;;;;;;;30.70;23.10;;;;;;;-2.02;100.00;96032.06;5029998;28;20204;-69
2022/12/09 02:00:22;;;;;;;30.07;22.60;;;;;;;-1.96;100.00;96028.13;4992688;28;20206;-71
2022/12/09 02:02:50;;;;;;;31.97;22.40;;;;;;;-1.92;100.00;96032.09;5023316;28;20297;-69
2022/12/09 02:05:23;;;;;;;37.67;23.93;;;;;;;-1.91;100.00;96020.75;4977959;28;20335;-70
2022/12/09 02:07:51;;;;;;;32.83;23.53;;;;;;;-1.92;100.00;96025.13;5024088;28;20974;-71
2022/12/09 02:10:19;;;;;;;35.20;23.10;;;;;;;-1.97;100.00;96023.91;5027990;28;20215;-71
2022/12/09 02:12:54;;;;;;;33.93;24.70;;;;;;;-1.94;100.00;96016.63;5024462;28;20207;-71
2022/12/09 02:15:24;;;;;;;31.87;23.80;;;;;;;-1.93;100.00;96010.50;5004296;28;20305;-71
2022/12/09 02:17:54;;;;;;;35.70;23.50;;;;;;;-1.96;100.00;96015.16;5022863;28;20215;-71
2022/12/09 02:20:28;;;;;;;35.20;25.53;;;;;;;-1.87;100.00;96014.34;4979608;28;20211;-71
2022/12/09 02:23:02;;;;;;;32.80;24.50;;;;;;;-1.82;100.00;96013.94;5020124;28;20234;-71
2022/12/09 02:25:30;;;;;;;35.90;23.83;;;;;;;-1.93;100.00;96007.09;5024558;28;20196;-72
2022/12/09 02:28:13;;;;;;;31.30;22.93;;;;;;;-1.92;100.00;96006.13;5021676;28;20208;-71
2022/12/09 02:30:45;;;;;;;37.10;25.23;;;;;;;-2.09;100.00;95992.03;4993918;28;20762;-70
2022/12/09 02:33:22;;;;;;;31.13;22.27;;;;;;;-1.95;100.00;95994.22;5022046;28;20322;-71
2022/12/09 02:35:53;;;;;;;32.30;23.60;;;;;;;-1.75;100.00;95989.06;4964528;28;20321;-71
2022/12/09 02:38:23;;;;;;;37.30;23.57;;;;;;;-1.94;100.00;95989.88;5018775;28;20210;-70
2022/12/09 02:40:54;;;;;;;33.00;23.63;;;;;;;-1.86;100.00;95981.41;5026519;28;20207;-72
2022/12/09 02:43:24;;;;;;;32.63;24.40;;;;;;;-1.83;100.00;95986.34;5028108;28;20444;-70
2022/12/09 02:45:53;;;;;;;34.80;23.93;;;;;;;-1.82;100.00;95987.97;4991206;28;20608;-70
2022/12/09 02:48:23;;;;;;;34.07;23.90;;;;;;;-1.79;100.00;95985.91;5031174;28;20837;-71
2022/12/09 02:50:53;;;;;;;28.60;23.27;;;;;;;-1.75;100.00;95989.06;4970864;28;20219;-71
2022/12/09 02:53:21;;;;;;;32.47;23.33;;;;;;;-1.72;100.00;95993.97;5022425;28;20698;-70
2022/12/09 02:55:50;;;;;;;30.87;22.53;;;;;;;-1.71;100.00;95987.00;5025718;28;20223;-72
2022/12/09 02:58:17;;;;;;;29.20;22.63;;;;;;;-1.71;100.00;95995.63;5033261;28;20467;-70
2022/12/09 03:00:45;;;;;;;27.00;22.00;;;;;;;-1.73;100.00;95984.56;4992639;28;20683;-70
2022/12/09 03:03:15;;;;;;;29.10;23.50;;;;;;;-1.67;100.00;96002.19;4996701;28;20306;-71
2022/12/09 03:05:50;;;;;;;35.03;23.53;;;;;;;-1.65;100.00;95996.88;5025733;28;20203;-70
2022/12/09 03:08:28;;;;;;;32.13;22.40;;;;;;;-1.54;100.00;95993.28;4989516;28;20223;-71
2022/12/09 03:10:58;;;;;;;32.17;22.57;;;;;;;-1.56;100.00;95970.06;5020235;28;20575;-70
2022/12/09 03:13:35;;;;;;;35.40;24.00;;;;;;;-1.64;100.00;95973.34;5017331;28;20214;-70
2022/12/09 03:16:08;;;;;;;31.77;24.17;;;;;;;-1.69;100.00;95985.91;5001481;28;20234;-71
2022/12/09 03:18:37;;;;;;;29.67;21.90;;;;;;;-1.69;100.00;95982.50;5025787;28;20755;-70
2022/12/09 03:21:05;;;;;;;29.60;21.97;;;;;;;-1.72;100.00;95980.16;5020225;28;20211;-70
2022/12/09 03:23:35;;;;;;;30.07;23.50;;;;;;;-1.65;100.00;95979.47;4977171;28;20690;-70
2022/12/09 03:26:04;;;;;;;30.63;22.23;;;;;;;-1.66;100.00;95972.66;5030267;28;20707;-69
2022/12/09 03:28:34;;;;;;;30.37;23.97;;;;;;;-1.64;100.00;95962.94;5031325;28;20227;-70
2022/12/09 03:31:05;;;;;;;29.07;23.07;;;;;;;-1.65;100.00;95963.09;5023150;28;20211;-70
2022/12/09 03:33:32;;;;;;;33.93;23.43;;;;;;;-1.64;100.00;95957.75;5005070;28;20239;-71
2022/12/09 03:36:04;;;;;;;32.47;23.20;;;;;;;-1.66;100.00;95951.88;5033418;28;20696;-70
2022/12/09 03:38:36;;;;;;;30.10;22.43;;;;;;;-1.66;100.00;95951.88;4978239;28;20215;-71
2022/12/09 03:41:08;;;;;;;30.17;22.50;;;;;;;-1.72;100.00;95949.84;4968554;28;20449;-71
2022/12/09 03:43:40;;;;;;;32.67;23.13;;;;;;;-1.78;100.00;95948.59;4996329;28;20215;-70
2022/12/09 03:46:07;;;;;;;30.93;24.03;;;;;;;-1.80;100.00;95942.72;5026832;28;20228;-71
2022/12/09 03:48:35;;;;;;;29.03;22.17;;;;;;;-1.81;100.00;95945.47;4996134;28;20522;-69
2022/12/09 03:51:07;;;;;;;34.70;23.33;;;;;;;-1.66;100.00;95946.69;5017011;28;21281;-70
2022/12/09 03:53:41;;;;;;;31.90;23.93;;;;;;;-1.78;100.00;95953.78;5029404;28;20673;-70
2022/12/09 03:56:12;;;;;;;31.07;23.27;;;;;;;-1.78;100.00;95953.78;4974412;28;20247;-71
2022/12/09 03:58:41;;;;;;;31.13;22.80;;;;;;;-1.76;100.00;95957.06;5018427;28;20210;-70
2022/12/09 04:01:08;;;;;;;28.40;22.10;;;;;;;-1.78;100.00;95945.19;5020546;28;20265;-71
2022/12/09 04:03:37;;;;;;;25.87;20.90;;;;;;;-1.81;100.00;95961.84;5000062;28;20207;-69
2022/12/09 04:06:06;;;;;;;29.07;22.50;;;;;;;-1.81;100.00;95961.84;5022772;28;20984;-69
2022/12/09 04:08:34;;;;;;;26.70;21.33;;;;;;;-1.82;100.00;95951.63;5025555;28;20235;-69
2022/12/09 04:11:03;;;;;;;26.73;21.63;;;;;;;-1.79;100.00;95946.16;5025478;28;20806;-70
2022/12/09 04:13:31;;;;;;;29.07;22.90;;;;;;;-1.85;100.00;95939.72;4941649;28;20429;-68
2022/12/09 04:15:59;;;;;;;30.47;22.37;;;;;;;-1.83;100.00;95934.41;5024885;28;20235;-71
2022/12/09 04:18:27;;;;;;;32.00;22.50;;;;;;;-1.88;100.00;95932.19;4994306;28;21617;-69
2022/12/09 04:20:55;;;;;;;27.43;22.23;;;;;;;-1.98;100.00;95936.59;5026539;28;20298;-72
2022/12/09 04:23:22;;;;;;;27.87;22.83;;;;;;;-2.10;100.00;95934.09;5020184;28;20208;-70
2022/12/09 04:25:50;;;;;;;27.90;20.73;;;;;;;-2.16;100.00;95918.28;5030055;28;20496;-70
2022/12/09 04:28:20;;;;;;;35.08;28.02;;;;;;;-2.28;100.00;95926.16;4974821;28;20446;-70
2022/12/09 04:30:48;;;;;;;33.03;24.10;;;;;;;-2.27;100.00;95932.19;5014940;28;20204;-69
2022/12/09 04:33:15;;;;;;;31.53;22.40;;;;;;;-2.37;100.00;95939.94;4974873;28;20215;-70
2022/12/09 04:35:43;;;;;;;27.67;21.83;;;;;;;-2.36;100.00;95934.63;5014142;28;20215;-71
2022/12/09 04:38:11;;;;;;;26.27;21.03;;;;;;;-2.39;100.00;95929.72;5026113;28;20209;-71
2022/12/09 04:40:39;;;;;;;26.43;21.30;;;;;;;-2.36;100.00;95931.22;5026302;28;20208;-72
2022/12/09 04:43:07;;;;;;;28.63;21.60;;;;;;;-2.33;100.00;95936.13;5020175;28;20494;-72
2022/12/09 04:45:36;;;;;;;24.63;21.40;;;;;;;-2.34;100.00;95926.69;4988645;28;20208;-72
2022/12/09 04:48:04;;;;;;;27.07;20.30;;;;;;;-2.23;100.00;95928.34;4989978;28;20657;-74
2022/12/09 04:50:32;;;;;;;27.33;20.30;;;;;;;-2.07;100.00;95930.41;4997959;28;20413;-72
2022/12/09 04:53:00;;;;;;;26.57;20.70;;;;;;;-1.92;100.00;95942.03;5025493;28;20214;-73
2022/12/09 04:55:28;;;;;;;32.20;22.17;;;;;;;-1.84;100.00;95941.34;5027952;28;20207;-70
2022/12/09 04:57:55;;;;;;;29.33;22.87;;;;;;;-1.89;100.00;95935.75;5028655;28;20656;-71
2022/12/09 05:00:23;;;;;;;30.40;22.03;;;;;;;-1.85;100.00;95915.53;4973636;28;20208;-71
2022/12/09 05:02:53;;;;;;;31.93;23.77;;;;;;;-1.69;100.00;95915.00;5025988;28;20238;-72
2022/12/09 05:05:21;;;;;;;29.30;22.40;;;;;;;-1.71;100.00;95906.47;4998753;28;20386;-71
2022/12/09 05:07:49;;;;;;;26.43;21.33;;;;;;;-1.77;100.00;95908.69;5028686;28;20227;-71
2022/12/09 05:10:17;;;;;;;28.73;22.07;;;;;;;-1.82;100.00;95900.50;5028231;28;20253;-70
2022/12/09 05:12:45;;;;;;;26.80;21.83;;;;;;;-1.92;100.00;95899.69;5026897;28;20207;-71
2022/12/09 05:15:13;;;;;;;30.07;22.63;;;;;;;-1.97;100.00;95891.50;4984022;28;20713;-72
2022/12/09 05:17:41;;;;;;;26.53;21.30;;;;;;;-2.02;100.00;95886.69;5024354;28;20242;-71
2022/12/09 05:20:12;;;;;;;26.07;20.63;;;;;;;-2.02;100.00;95883.31;5028716;28;20215;-74
2022/12/09 05:22:41;;;;;;;26.60;21.10;;;;;;;-2.06;100.00;95887.94;5011310;28;20203;-73
2022/12/09 05:25:09;;;;;;;25.97;19.43;;;;;;;-2.07;100.00;95891.50;5004049;28;21020;-72
2022/12/09 05:27:37;;;;;;;22.30;17.80;;;;;;;-2.08;100.00;95884.66;5032106;28;20339;-72
2022/12/09 05:30:06;;;;;;;22.00;19.27;;;;;;;-2.22;100.00;95880.69;4990421;28;21608;-72
2022/12/09 05:32:35;;;;;;;23.50;19.63;;;;;;;-2.20;100.00;95883.97;5015900;28;20285;-72
2022/12/09 05:35:03;;;;;;;20.17;17.80;;;;;;;-2.23;100.00;95881.66;5028071;28;20208;-72
2022/12/09 05:37:33;;;;;;;21.93;18.50;;;;;;;-2.18;100.00;95874.28;5005075;28;20231;-73
2022/12/09 05:40:01;;;;;;;23.53;18.50;;;;;;;-2.16;100.00;95874.94;5037923;28;20203;-72
2022/12/09 05:42:29;;;;;;;24.27;18.70;;;;;;;-2.24;100.00;95882.59;5037296;28;20199;-73
2022/12/09 05:44:57;;;;;;;19.77;17.70;;;;;;;-2.21;100.00;95869.34;5032888;28;20295;-74
2022/12/09 05:47:25;;;;;;;21.90;17.53;;;;;;;-2.26;100.00;95862.00;4986646;28;20593;-72
2022/12/09 05:49:53;;;;;;;20.73;16.70;;;;;;;-2.28;100.00;95855.28;4935445;28;20219;-72
2022/12/09 05:52:21;;;;;;;18.70;16.33;;;;;;;-2.21;100.00;95866.75;5014188;28;20239;-73
2022/12/09 05:54:51;;;;;;;20.20;17.60;;;;;;;-2.40;100.00;95859.78;4986931;28;20549;-73
2022/12/09 05:57:19;;;;;;;20.07;16.17;;;;;;;-2.51;100.00;95863.31;5022756;28;20242;-71
2022/12/09 05:59:47;;;;;;;19.70;16.43;;;;;;;-2.55;100.00;95859.38;5024823;28;20404;-72
2022/12/09 06:02:15;;;;;;;19.30;15.77;;;;;;;-2.64;100.00;95858.41;5022264;28;20209;-73
2022/12/09 06:04:43;;;;;;;19.87;15.97;;;;;;;-2.68;100.00;95863.03;4982408;28;20231;-72
2022/12/09 06:07:11;;;;;;;16.60;15.00;;;;;;;-2.69;100.00;95850.19;5027468;28;20569;-73
2022/12/09 06:09:39;;;;;;;17.83;16.07;;;;;;;-2.69;100.00;95847.59;5024294;28;20222;-71
2022/12/09 06:12:09;;;;;;;17.67;15.80;;;;;;;-2.69;100.00;95851.03;4972031;28;20723;-73
2022/12/09 06:14:37;;;;;;;20.43;16.27;;;;;;;-2.67;100.00;95849.13;5026966;28;20442;-72
2022/12/09 06:17:05;;;;;;;21.13;16.53;;;;;;;-2.68;100.00;95842.31;4991379;28;20381;-72
2022/12/09 06:19:33;;;;;;;17.17;15.37;;;;;;;-2.69;100.00;95845.84;4979570;28;20453;-73
2022/12/09 06:22:01;;;;;;;23.77;17.40;;;;;;;-2.68;100.00;95842.31;5024235;28;20479;-72
2022/12/09 06:24:29;;;;;;;18.07;15.57;;;;;;;-2.71;100.00;95841.72;5025153;28;20519;-73
2022/12/09 06:26:57;;;;;;;18.47;15.83;;;;;;;-2.65;100.00;95844.63;4969185;28;20725;-71
2022/12/09 06:29:26;;;;;;;18.00;15.20;;;;;;;-2.65;100.00;95839.44;5022536;28;20200;-71
2022/12/09 06:31:54;;;;;;;17.63;15.20;;;;;;;-2.66;100.00;95842.97;5028690;28;20204;-71
2022/12/09 06:34:22;;;;;;;19.57;17.00;;;;;;;-2.59;100.00;95853.66;4976800;28;20246;-71
2022/12/09 06:36:50;;;;;;;18.57;16.67;;;;;;;-2.55;100.00;95852.41;5021186;28;20729;-71
2022/12/09 06:39:18;;;;;;;19.17;17.10;;;;;;;-2.42;100.00;95851.31;5028432;28;20207;-71
2022/12/09 06:41:46;;;;;;;20.43;16.77;;;;;;;-2.42;100.00;95835.75;5008142;28;20681;-72
2022/12/09 06:44:14;;;;;;;20.70;18.00;;;;;;;-2.46;100.00;95830.03;5033926;28;20200;-73
2022/12/09 06:46:51;;;;;;;19.67;17.43;;;;;;;-2.52;100.00;95833.16;5024180;28;20813;-74
2022/12/09 06:49:19;;;;;;;19.27;17.10;;;;;;;-2.50;100.00;95831.25;4972158;28;20910;-72
2022/12/09 06:51:47;;;;;;;20.50;18.37;;;;;;;-2.56;100.00;95832.63;5018263;28;20548;-72
2022/12/09 06:54:17;;;;;;;22.43;20.03;;;;;;;-2.57;100.00;95830.16;5023004;28;20838;-71
2022/12/09 06:56:45;;;;;;;21.40;18.53;;;;;;;-2.63;100.00;95834.13;5034547;28;20467;-73
2022/12/09 06:59:13;;;;;;;18.47;16.57;;;;;;;-2.69;100.00;95840.66;4999067;28;20211;-71
2022/12/09 07:01:40;;;;;;;19.30;17.30;;;;;;;-2.72;100.00;95827.13;5022633;28;20215;-72
2022/12/09 07:04:13;;;;;;;22.40;18.70;;;;;;;-2.77;100.00;95824.97;4978373;28;20215;-71
2022/12/09 07:06:42;;;;;;;18.93;16.93;;;;;;;-2.80;100.00;95828.63;5023186;28;20438;-71
2022/12/09 07:09:12;;;;;;;21.43;17.80;;;;;;;-2.75;100.00;95830.84;5028202;28;20287;-71
2022/12/09 07:11:41;;;;;;;19.57;17.07;;;;;;;-2.77;100.00;95823.16;5027010;28;20243;-71
2022/12/09 07:14:09;;;;;;;17.67;15.57;;;;;;;-2.73;100.00;95835.88;5001021;28;20567;-73
2022/12/09 07:16:37;;;;;;;19.47;17.40;;;;;;;-2.77;100.00;95823.16;5019124;28;20388;-72
2022/12/09 07:19:06;;;;;;;21.00;18.57;;;;;;;-2.80;100.00;95820.84;5026180;28;20675;-72
2022/12/09 07:21:36;;;;;;;22.83;19.83;;;;;;;-2.71;100.00;95837.38;4977538;28;20490;-73
2022/12/09 07:24:04;;;;;;;24.83;17.67;;;;;;;-2.62;100.00;95840.94;5028397;28;20560;-72
2022/12/09 07:26:32;;;;;;;21.00;17.97;;;;;;;-2.54;100.00;95840.25;5025381;28;20437;-71
2022/12/09 07:29:01;;;;;;;21.33;17.97;;;;;;;-2.51;100.00;95851.19;5004625;28;20653;-73
2022/12/09 07:31:29;;;;;;;20.87;17.67;;;;;;;-2.43;100.00;95844.50;5028379;28;20798;-72
2022/12/09 07:33:58;;;;;;;19.90;17.80;;;;;;;-2.35;100.00;95837.69;5027167;28;20286;-72
2022/12/09 07:36:28;;;;;;;22.13;17.83;;;;;;;-2.28;100.00;95829.34;4970079;28;20238;-71
2022/12/09 07:38:59;;;;;;;19.53;15.73;;;;;;;-2.25;100.00;95824.72;5022850;28;20223;-72
2022/12/09 07:41:27;;;;;;;18.20;15.93;;;;;;;-2.22;100.00;95826.19;5026682;28;20446;-72
2022/12/09 07:43:55;;;;;;;18.70;15.90;;;;;;;-2.31;100.00;95830.44;5000500;28;20924;-72
2022/12/09 07:46:24;;;;;;;19.40;16.07;;;;;;;-2.34;100.00;95828.94;5018639;28;20241;-71
2022/12/09 07:48:52;;;;;;;18.90;16.07;;;;;;;-2.31;100.00;95819.25;5029576;28;20302;-72
2022/12/09 07:51:21;;;;;;;17.07;15.27;;;;;;;-2.32;100.00;95823.59;4979954;28;20214;-70
2022/12/09 07:53:48;;;;;;;18.37;16.40;;;;;;;-2.29;100.00;95820.72;5028276;28;20302;-72
2022/12/09 07:56:18;;;;;;;17.53;15.67;;;;;;;-2.28;100.00;95824.16;4970006;28;20419;-72
2022/12/09 07:58:49;;;;;;;20.03;17.17;;;;;;;-2.24;100.00;95820.34;4994342;28;20286;-70
2022/12/09 08:01:19;;;;;;;19.93;16.17;;;;;;;-2.30;100.00;95815.69;5024050;28;20753;-72
2022/12/09 08:03:48;;;;;;;19.00;16.97;;;;;;;-2.26;100.00;95815.28;4997816;28;20208;-70
2022/12/09 08:06:19;;;;;;;18.07;16.17;;;;;;;-2.24;100.00;95820.34;5020052;28;20623;-70
2022/12/09 08:08:48;;;;;;;19.00;16.60;;;;;;;-2.30;100.00;95819.09;5028103;28;20211;-71
2022/12/09 08:11:19;;;;;;;18.23;16.17;;;;;;;-2.22;100.00;95810.63;4975343;28;21649;-73
2022/12/09 08:13:48;;;;;;;19.63;16.73;;;;;;;-2.22;100.00;95803.69;5026109;28;20210;-71
2022/12/09 08:16:18;;;;;;;22.90;19.10;;;;;;;-2.35;100.00;95801.38;5022084;28;20677;-71
2022/12/09 08:18:47;;;;;;;23.53;19.73;;;;;;;-2.25;100.00;95821.28;4962934;28;20844;-71
2022/12/09 08:21:17;;;;;;;21.70;18.13;;;;;;;-2.20;100.00;95811.31;5021458;28;20632;-72
2022/12/09 08:23:46;;;;;;;20.53;18.43;;;;;;;-2.17;100.00;95807.63;5025633;28;20745;-70
2022/12/09 08:26:15;;;;;;;21.43;18.20;;;;;;;-2.15;100.00;95801.31;5024838;28;20793;-71
2022/12/09 08:28:45;;;;;;;20.37;17.10;;;;;;;-2.11;100.00;95802.69;4982007;28;20219;-71
2022/12/09 08:31:15;;;;;;;19.20;17.13;;;;;;;-2.06;100.00;95784.94;5021836;28;20798;-73
2022/12/09 08:33:45;;;;;;;21.77;18.90;;;;;;;-2.06;100.00;95782.34;4999274;28;20738;-70
2022/12/09 08:36:14;;;;;;;19.87;17.77;;;;;;;-2.02;100.00;95784.66;4992332;28;20242;-71
2022/12/09 08:38:42;;;;;;;21.10;17.83;;;;;;;-1.96;100.00;95779.72;5026414;28;20455;-69
2022/12/09 08:41:12;;;;;;;21.97;18.90;;;;;;;-1.90;100.00;95789.53;5025581;28;20215;-71
2022/12/09 08:43:41;;;;;;;22.07;18.13;;;;;;;-1.84;100.00;95787.34;4981347;28;20207;-69
2022/12/09 08:46:10;;;;;;;24.57;19.23;;;;;;;-1.86;100.00;95776.28;4990799;28;20902;-72
2022/12/09 08:48:39;;;;;;;24.03;18.57;;;;;;;-1.87;100.00;95772.88;5000945;28;20315;-73
2022/12/09 08:51:09;;;;;;;23.37;19.00;;;;;;;-1.70;100.00;95773.91;4985248;28;20428;-71
2022/12/09 08:53:38;;;;;;;20.77;17.50;;;;;;;-1.67;100.00;95767.63;5023851;28;20249;-71
2022/12/09 08:56:11;;;;;;;21.33;19.07;;;;;;;-1.65;100.00;95768.28;5022066;28;20224;-69
2022/12/09 08:58:40;;;;;;;21.57;18.60;;;;;;;-1.67;100.00;95758.03;4977395;28;20714;-69
2022/12/09 09:01:16;;;;;;;21.80;19.07;;;;;;;-1.54;100.00;95752.53;5019839;28;20489;-72
2022/12/09 09:03:44;;;;;;;19.93;17.40;;;;;;;-1.53;100.00;95754.16;5025899;28;20558;-71
2022/12/09 09:06:13;;;;;;;20.07;17.10;;;;;;;-1.44;100.00;95759.44;4991703;28;20660;-71
2022/12/09 09:08:41;;;;;;;20.43;17.07;;;;;;;-1.41;100.00;95759.97;5028142;28;20230;-71
2022/12/09 09:11:10;;;;;;;20.73;17.07;;;;;;;-1.32;100.00;95761.72;5027047;28;20243;-69
2022/12/09 09:13:39;;;;;;;21.77;18.47;;;;;;;-1.26;100.00;95756.88;4980729;28;20338;-71
2022/12/09 09:16:10;;;;;;;19.63;17.53;;;;;;;-1.17;100.00;95762.03;5020614;28;20321;-71
2022/12/09 09:18:39;;;;;;;19.77;17.50;;;;;;;-1.17;100.00;95754.25;5029661;28;20228;-72
2022/12/09 09:21:08;;;;;;;18.50;16.37;;;;;;;-1.10;100.00;95751.06;5025015;28;20475;-70
2022/12/09 09:23:37;;;;;;;21.00;17.63;;;;;;;-1.08;100.00;95752.56;5001157;28;20226;-71
2022/12/09 09:26:05;;;;;;;21.93;17.87;;;;;;;-0.92;100.00;95735.47;5023753;28;20718;-71
2022/12/09 09:28:33;;;;;;;19.70;17.10;;;;;;;-0.96;100.00;95734.94;4985079;28;20483;-71
2022/12/09 09:31:03;;;;;;;20.13;17.50;;;;;;;-0.87;100.00;95735.84;5000312;28;21245;-72
2022/12/09 09:33:32;;;;;;;19.77;17.57;;;;;;;-0.74;100.00;95735.47;4998738;28;20207;-73
2022/12/09 09:36:03;;;;;;;21.60;17.40;;;;;;;-0.78;100.00;95728.94;5021404;28;20417;-72
2022/12/09 09:38:36;;;;;;;19.07;16.97;;;;;;;-0.83;100.00;95726.78;4997399;28;20219;-72
2022/12/09 09:41:10;;;;;;;21.57;16.87;;;;;;;-0.89;100.00;95719.56;5025630;28;20514;-73
2022/12/09 09:43:38;;;;;;;19.17;17.27;;;;;;;-0.84;100.00;95717.34;5006086;28;20214;-72
2022/12/09 09:46:06;;;;;;;19.23;17.13;;;;;;;-0.66;100.00;95719.94;5003079;28;20844;-72
2022/12/09 09:48:35;;;;;;;22.87;15.83;;;;;;;-0.75;100.00;95720.84;5005277;28;20207;-71
2022/12/09 09:51:08;;;;;;;16.87;15.17;;;;;;;-0.67;100.00;95715.69;5029864;28;20546;-70
2022/12/09 09:53:36;;;;;;;19.37;15.80;;;;;;;-0.53;100.00;95697.94;5003350;28;20207;-71
2022/12/09 09:56:06;;;;;;;19.07;16.10;;;;;;;-0.52;100.00;95694.38;5028848;28;20532;-71
2022/12/09 09:58:39;;;;;;;16.30;14.60;;;;;;;-0.64;100.00;95699.00;5015479;28;20230;-70
2022/12/09 10:01:09;;;;;;;17.80;16.00;;;;;;;-0.62;100.00;95684.03;5000970;28;20313;-70
2022/12/09 10:03:50;;;;;;;17.10;15.10;;;;;;;-0.54;100.00;95685.91;4944811;28;20943;-72
2022/12/09 10:06:32;;;;;;;15.63;14.03;;;;;;;-0.52;100.00;95689.16;4983050;28;20235;-70
2022/12/09 10:09:03;;;;;;;17.13;15.43;;;;;;;-0.44;100.00;95678.81;5027114;28;20200;-71
2022/12/09 10:11:37;;;;;;;21.13;18.13;;;;;;;-0.32;100.00;95682.00;4970380;28;20334;-72
2022/12/09 10:14:14;;;;;;;16.67;14.63;;;;;;;-0.34;100.00;95679.53;5030608;28;20202;-73
2022/12/09 10:16:44;;;;;;;17.80;15.43;;;;;;;-0.25;100.00;95676.97;5006994;28;21045;-73
2022/12/09 10:19:18;;;;;;;17.50;15.67;;;;;;;-0.25;100.00;95674.34;4998903;28;20216;-72
2022/12/09 10:21:49;;;;;;;17.00;14.67;;;;;;;-0.39;100.00;95660.94;5005420;28;20203;-72
2022/12/09 10:24:23;;;;;;;17.13;15.30;;;;;;;-0.34;100.00;95666.50;5030445;28;20299;-73
2022/12/09 10:26:57;;;;;;;16.07;14.40;;;;;;;-0.12;100.00;95655.72;4961431;28;20751;-71
2022/12/09 10:29:37;;;;;;;15.80;14.20;;;;;;;0.07;100.00;95660.72;5029934;28;20640;-73
2022/12/09 10:32:07;;;;;;;15.43;13.83;;;;;;;-0.09;100.00;95655.41;5031588;28;20426;-72
2022/12/09 10:34:35;;;;;;;15.57;13.87;;;;;;;-0.02;100.00;95649.44;4942187;28;21190;-72
2022/12/09 10:37:05;;;;;;;15.27;13.80;;;;;;;-0.05;100.00;95664.53;5018802;28;20286;-72
2022/12/09 10:39:33;;;;;;;19.07;17.10;;;;;;;-0.16;100.00;95663.03;4997781;28;20227;-70
2022/12/09 10:44:47;;;;;;;19.90;17.80;;;;;;;-0.01;100.00;95658.06;5027225;28;20196;-74
2022/12/09 10:47:24;;;;;;;18.07;16.27;;;;;;;0.13;100.00;95649.66;5020263;28;20426;-73
2022/12/09 10:49:54;;;;;;;17.83;15.93;;;;;;;0.11;100.00;95646.41;4977341;28;20207;-73
2022/12/09 10:52:24;;;;;;;14.93;13.43;;;;;;;0.20;100.00;95646.44;5022495;28;20923;-69
2022/12/09 10:54:53;;;;;;;16.53;14.77;;;;;;;0.02;100.00;95641.31;5023327;28;20215;-71
2022/12/09 10:57:24;;;;;;;15.47;13.97;;;;;;;0.00;100.00;95641.50;4984898;28;20495;-71
2022/12/09 10:59:58;;;;;;;14.27;12.67;;;;;;;0.19;100.00;95650.84;5027839;28;20398;-70
2022/12/09 11:02:28;;;;;;;15.77;13.93;;;;;;;0.11;100.00;95645.59;5019514;28;20234;-70
2022/12/09 11:05:20;;;;;;;16.63;14.03;;;;;;;-0.08;100.00;95647.47;5005874;28;20200;-71
2022/12/09 11:07:51;;;;;;;16.57;14.00;;;;;;;0.11;100.00;95649.00;5024530;28;20250;-71
2022/12/09 11:10:21;;;;;;;16.17;14.50;;;;;;;0.03;100.00;95632.53;4994817;28;21215;-73
2022/12/09 11:12:54;;;;;;;15.07;13.60;;;;;;;0.01;100.00;95634.47;5027491;28;20895;-70
2022/12/09 11:15:26;;;;;;;16.53;14.93;;;;;;;-0.05;100.00;95628.91;5005398;28;20933;-72
2022/12/09 11:17:57;;;;;;;16.50;14.73;;;;;;;-0.01;100.00;95624.19;5029082;28;20606;-70
2022/12/09 11:20:27;;;;;;;16.50;14.90;;;;;;;0.20;100.00;95623.81;4979217;28;21103;-71
2022/12/09 11:23:03;;;;;;;13.20;11.83;;;;;;;0.25;100.00;95621.56;5009424;28;20214;-70